sensor_id;sensor_type;location;lat;lon;timestamp;temperature;humidity
4050;DHT22;2039;50.894;6.888;2023-05-10T00:01:46;14.80;99.90
4050;DHT22;2039;50.894;6.888;2023-05-10T00:04:12;14.80;99.90
4050;DHT22;2039;50.894;6.888;2023-05-10T00:06:40;14.70;99.90
4050;DHT22;2039;50.894;6.888;2023-05-10T00:09:06;14.80;99.90
4050;DHT22;2039;50.894;6.888;2023-05-10T00:11:32;14.80;99.90
4050;DHT22;2039;50.894;6.888;2023-05-10T00:13:57;14.70;99.90
4050;DHT22;2039;50.894;6.888;2023-05-10T00:16:23;14.80;99.90
4050;DHT22;2039;50.894;6.888;2023-05-10T00:18:48;14.70;99.90
4050;DHT22;2039;50.894;6.888;2023-05-10T00:21:14;14.70;99.90
4050;DHT22;2039;50.894;6.888;2023-05-10T00:23:40;14.80;99.90
4050;DHT22;2039;50.894;6.888;2023-05-10T00:26:06;14.80;99.90
4050;DHT22;2039;50.894;6.888;2023-05-10T00:28:31;14.70;99.90
4050;DHT22;2039;50.894;6.888;2023-05-10T00:30:57;14.70;99.90
4050;DHT22;2039;50.894;6.888;2023-05-10T00:33:23;14.70;99.90
4050;DHT22;2039;50.894;6.888;2023-05-10T00:35:48;14.80;99.90
4050;DHT22;2039;50.894;6.888;2023-05-10T00:38:14;14.80;99.90
4050;DHT22;2039;50.894;6.888;2023-05-10T00:40:40;14.70;99.90
4050;DHT22;2039;50.894;6.888;2023-05-10T00:43:06;14.70;99.90
4050;DHT22;2039;50.894;6.888;2023-05-10T00:45:32;14.70;99.90
4050;DHT22;2039;50.894;6.888;2023-05-10T00:48:01;14.60;99.90
4050;DHT22;2039;50.894;6.888;2023-05-10T00:50:28;14.70;99.90
4050;DHT22;2039;50.894;6.888;2023-05-10T00:52:54;14.70;99.90
4050;DHT22;2039;50.894;6.888;2023-05-10T00:55:20;14.80;99.90
4050;DHT22;2039;50.894;6.888;2023-05-10T00:57:46;14.80;99.90
4050;DHT22;2039;50.894;6.888;2023-05-10T01:00:13;14.80;99.90
4050;DHT22;2039;50.894;6.888;2023-05-10T01:02:46;14.70;99.90
4050;DHT22;2039;50.894;6.888;2023-05-10T01:05:12;14.70;99.90
4050;DHT22;2039;50.894;6.888;2023-05-10T01:07:38;14.70;99.90
4050;DHT22;2039;50.894;6.888;2023-05-10T01:10:06;14.70;99.90
4050;DHT22;2039;50.894;6.888;2023-05-10T01:12:33;14.70;99.90
4050;DHT22;2039;50.894;6.888;2023-05-10T01:15:00;14.60;99.90
4050;DHT22;2039;50.894;6.888;2023-05-10T01:17:27;14.70;99.90
4050;DHT22;2039;50.894;6.888;2023-05-10T01:19:53;14.70;99.90
4050;DHT22;2039;50.894;6.888;2023-05-10T01:34:19;14.70;99.90
4050;DHT22;2039;50.894;6.888;2023-05-10T01:36:51;14.70;99.90
4050;DHT22;2039;50.894;6.888;2023-05-10T01:41:56;14.70;99.90
4050;DHT22;2039;50.894;6.888;2023-05-10T01:44:35;14.70;99.90
4050;DHT22;2039;50.894;6.888;2023-05-10T01:47:42;14.80;99.90
4050;DHT22;2039;50.894;6.888;2023-05-10T01:50:02;14.70;99.90
4050;DHT22;2039;50.894;6.888;2023-05-10T01:52:36;14.70;99.90
4050;DHT22;2039;50.894;6.888;2023-05-10T01:55:06;14.70;99.90
4050;DHT22;2039;50.894;6.888;2023-05-10T01:57:35;14.70;99.90
4050;DHT22;2039;50.894;6.888;2023-05-10T02:00:03;14.70;99.90
4050;DHT22;2039;50.894;6.888;2023-05-10T02:02:32;14.60;99.90
4050;DHT22;2039;50.894;6.888;2023-05-10T02:04:59;14.60;99.90
4050;DHT22;2039;50.894;6.888;2023-05-10T02:07:26;14.60;99.90
4050;DHT22;2039;50.894;6.888;2023-05-10T02:09:55;14.60;99.90
4050;DHT22;2039;50.894;6.888;2023-05-10T02:12:22;14.60;99.90
4050;DHT22;2039;50.894;6.888;2023-05-10T02:14:51;14.60;99.90
4050;DHT22;2039;50.894;6.888;2023-05-10T02:17:18;14.60;99.90
4050;DHT22;2039;50.894;6.888;2023-05-10T02:19:45;14.60;99.90
4050;DHT22;2039;50.894;6.888;2023-05-10T02:22:13;14.60;99.90
4050;DHT22;2039;50.894;6.888;2023-05-10T02:24:39;14.60;99.90
4050;DHT22;2039;50.894;6.888;2023-05-10T02:27:06;14.60;99.90
4050;DHT22;2039;50.894;6.888;2023-05-10T02:29:33;14.60;99.90
4050;DHT22;2039;50.894;6.888;2023-05-10T02:31:59;14.60;99.90
4050;DHT22;2039;50.894;6.888;2023-05-10T02:34:26;14.60;99.90
4050;DHT22;2039;50.894;6.888;2023-05-10T02:36:53;14.50;99.90
4050;DHT22;2039;50.894;6.888;2023-05-10T02:39:21;14.50;99.90
4050;DHT22;2039;50.894;6.888;2023-05-10T02:41:48;14.50;99.90
4050;DHT22;2039;50.894;6.888;2023-05-10T02:44:15;14.50;99.90
4050;DHT22;2039;50.894;6.888;2023-05-10T02:46:42;14.50;99.90
4050;DHT22;2039;50.894;6.888;2023-05-10T02:49:08;14.50;99.90
4050;DHT22;2039;50.894;6.888;2023-05-10T02:51:36;14.50;99.90
4050;DHT22;2039;50.894;6.888;2023-05-10T02:54:10;14.50;99.90
4050;DHT22;2039;50.894;6.888;2023-05-10T02:56:40;14.60;99.90
4050;DHT22;2039;50.894;6.888;2023-05-10T02:59:07;14.60;99.90
4050;DHT22;2039;50.894;6.888;2023-05-10T03:01:36;14.60;99.90
4050;DHT22;2039;50.894;6.888;2023-05-10T03:04:02;14.50;99.90
4050;DHT22;2039;50.894;6.888;2023-05-10T03:06:27;14.50;99.90
4050;DHT22;2039;50.894;6.888;2023-05-10T03:08:54;14.50;99.90
4050;DHT22;2039;50.894;6.888;2023-05-10T03:14:13;14.60;99.90
4050;DHT22;2039;50.894;6.888;2023-05-10T03:17:00;14.60;99.90
4050;DHT22;2039;50.894;6.888;2023-05-10T03:27:39;14.50;99.90
4050;DHT22;2039;50.894;6.888;2023-05-10T03:30:19;14.50;99.90
4050;DHT22;2039;50.894;6.888;2023-05-10T03:32:55;14.50;99.90
4050;DHT22;2039;50.894;6.888;2023-05-10T03:35:37;14.50;99.90
4050;DHT22;2039;50.894;6.888;2023-05-10T03:38:06;14.50;99.90
4050;DHT22;2039;50.894;6.888;2023-05-10T03:40:35;14.40;99.90
4050;DHT22;2039;50.894;6.888;2023-05-10T03:43:06;14.40;99.90
4050;DHT22;2039;50.894;6.888;2023-05-10T03:45:45;14.40;99.90
4050;DHT22;2039;50.894;6.888;2023-05-10T03:48:13;14.40;99.90
4050;DHT22;2039;50.894;6.888;2023-05-10T03:50:55;14.40;99.90
4050;DHT22;2039;50.894;6.888;2023-05-10T03:53:27;14.40;99.90
4050;DHT22;2039;50.894;6.888;2023-05-10T05:20:36;14.40;99.90
4050;DHT22;2039;50.894;6.888;2023-05-10T05:23:14;14.50;99.90
4050;DHT22;2039;50.894;6.888;2023-05-10T05:29:51;14.50;99.90
4050;DHT22;2039;50.894;6.888;2023-05-10T05:33:04;14.40;99.90
4050;DHT22;2039;50.894;6.888;2023-05-10T06:10:08;14.70;99.90
4050;DHT22;2039;50.894;6.888;2023-05-10T06:19:46;14.90;99.90
4050;DHT22;2039;50.894;6.888;2023-05-10T06:40:19;14.70;99.90
4050;DHT22;2039;50.894;6.888;2023-05-10T06:49:32;14.70;99.90
4050;DHT22;2039;50.894;6.888;2023-05-10T07:06:42;14.80;99.90
4050;DHT22;2039;50.894;6.888;2023-05-10T09:23:45;16.80;99.90
4050;DHT22;2039;50.894;6.888;2023-05-10T09:26:12;16.90;99.90
4050;DHT22;2039;50.894;6.888;2023-05-10T09:28:55;16.80;99.90
4050;DHT22;2039;50.894;6.888;2023-05-10T09:31:21;16.80;99.90
4050;DHT22;2039;50.894;6.888;2023-05-10T09:33:48;16.70;99.90
4050;DHT22;2039;50.894;6.888;2023-05-10T09:36:15;16.60;99.90
4050;DHT22;2039;50.894;6.888;2023-05-10T09:41:23;16.30;99.90
4050;DHT22;2039;50.894;6.888;2023-05-10T09:43:50;16.20;99.90
4050;DHT22;2039;50.894;6.888;2023-05-10T09:46:20;16.20;99.90
4050;DHT22;2039;50.894;6.888;2023-05-10T09:48:47;16.10;99.90
4050;DHT22;2039;50.894;6.888;2023-05-10T09:51:23;16.10;99.90
4050;DHT22;2039;50.894;6.888;2023-05-10T09:54:13;16.20;99.90
4050;DHT22;2039;50.894;6.888;2023-05-10T09:56:40;16.10;99.90
4050;DHT22;2039;50.894;6.888;2023-05-10T09:59:28;16.10;99.90
4050;DHT22;2039;50.894;6.888;2023-05-10T10:01:58;16.30;99.90
4050;DHT22;2039;50.894;6.888;2023-05-10T10:04:30;16.40;99.90
4050;DHT22;2039;50.894;6.888;2023-05-10T10:07:04;16.50;99.90
4050;DHT22;2039;50.894;6.888;2023-05-10T10:09:30;16.50;99.90
4050;DHT22;2039;50.894;6.888;2023-05-10T10:11:56;16.50;99.90
4050;DHT22;2039;50.894;6.888;2023-05-10T10:14:25;16.50;99.90
4050;DHT22;2039;50.894;6.888;2023-05-10T10:16:51;16.60;99.90
4050;DHT22;2039;50.894;6.888;2023-05-10T10:19:18;16.70;99.90
4050;DHT22;2039;50.894;6.888;2023-05-10T10:21:44;16.80;99.90
4050;DHT22;2039;50.894;6.888;2023-05-10T10:24:10;17.00;99.90
4050;DHT22;2039;50.894;6.888;2023-05-10T10:26:37;17.10;99.90
4050;DHT22;2039;50.894;6.888;2023-05-10T10:35:01;17.30;99.90
4050;DHT22;2039;50.894;6.888;2023-05-10T10:37:46;17.30;99.90
4050;DHT22;2039;50.894;6.888;2023-05-10T10:40:25;17.30;99.90
4050;DHT22;2039;50.894;6.888;2023-05-10T10:42:55;17.30;99.90
4050;DHT22;2039;50.894;6.888;2023-05-10T10:45:22;17.40;99.90
4050;DHT22;2039;50.894;6.888;2023-05-10T10:47:48;17.40;99.90
4050;DHT22;2039;50.894;6.888;2023-05-10T10:50:18;17.50;99.90
4050;DHT22;2039;50.894;6.888;2023-05-10T10:52:44;17.40;99.90
4050;DHT22;2039;50.894;6.888;2023-05-10T10:57:59;17.50;99.90
4050;DHT22;2039;50.894;6.888;2023-05-10T11:00:30;17.40;99.90
4050;DHT22;2039;50.894;6.888;2023-05-10T11:05:42;17.50;99.90
4050;DHT22;2039;50.894;6.888;2023-05-10T11:10:38;17.60;99.90
4050;DHT22;2039;50.894;6.888;2023-05-10T11:13:05;17.60;99.90
4050;DHT22;2039;50.894;6.888;2023-05-10T11:15:38;17.50;99.90
4050;DHT22;2039;50.894;6.888;2023-05-10T11:21:26;17.60;99.90
4050;DHT22;2039;50.894;6.888;2023-05-10T11:23:55;17.60;99.90
4050;DHT22;2039;50.894;6.888;2023-05-10T11:26:25;17.50;99.90
4050;DHT22;2039;50.894;6.888;2023-05-10T11:28:53;17.50;99.90
4050;DHT22;2039;50.894;6.888;2023-05-10T11:31:21;17.70;99.90
4050;DHT22;2039;50.894;6.888;2023-05-10T11:33:52;17.70;99.90
4050;DHT22;2039;50.894;6.888;2023-05-10T11:36:21;17.60;99.90
4050;DHT22;2039;50.894;6.888;2023-05-10T11:38:47;17.80;99.90
4050;DHT22;2039;50.894;6.888;2023-05-10T11:41:15;18.00;99.90
4050;DHT22;2039;50.894;6.888;2023-05-10T11:43:41;18.20;99.90
4050;DHT22;2039;50.894;6.888;2023-05-10T11:46:09;18.30;99.90
4050;DHT22;2039;50.894;6.888;2023-05-10T11:48:36;18.30;99.90
4050;DHT22;2039;50.894;6.888;2023-05-10T11:51:02;18.20;99.90
4050;DHT22;2039;50.894;6.888;2023-05-10T11:53:32;18.10;99.90
4050;DHT22;2039;50.894;6.888;2023-05-10T11:56:08;18.00;99.90
4050;DHT22;2039;50.894;6.888;2023-05-10T11:58:36;18.10;99.90
4050;DHT22;2039;50.894;6.888;2023-05-10T12:01:03;18.00;99.90
4050;DHT22;2039;50.894;6.888;2023-05-10T12:03:29;18.10;99.90
4050;DHT22;2039;50.894;6.888;2023-05-10T12:05:56;18.30;99.10
4050;DHT22;2039;50.894;6.888;2023-05-10T12:08:26;18.50;91.80
4050;DHT22;2039;50.894;6.888;2023-05-10T12:10:53;18.80;76.90
4050;DHT22;2039;50.894;6.888;2023-05-10T12:13:20;19.10;43.30
4050;DHT22;2039;50.894;6.888;2023-05-10T12:15:46;19.40;46.70
4050;DHT22;2039;50.894;6.888;2023-05-10T12:18:13;19.60;52.00
4050;DHT22;2039;50.894;6.888;2023-05-10T12:20:40;19.80;37.90
4050;DHT22;2039;50.894;6.888;2023-05-10T12:23:08;19.80;21.90
4050;DHT22;2039;50.894;6.888;2023-05-10T12:25:36;19.80;24.30
4050;DHT22;2039;50.894;6.888;2023-05-10T12:28:08;19.70;13.00
4050;DHT22;2039;50.894;6.888;2023-05-10T12:30:36;19.70;14.50
4050;DHT22;2039;50.894;6.888;2023-05-10T12:33:11;19.80;8.90
4050;DHT22;2039;50.894;6.888;2023-05-10T12:35:49;19.70;11.60
4050;DHT22;2039;50.894;6.888;2023-05-10T12:46:12;19.90;11.70
4050;DHT22;2039;50.894;6.888;2023-05-10T12:48:38;19.90;10.10
4050;DHT22;2039;50.894;6.888;2023-05-10T12:51:05;20.00;2.90
4050;DHT22;2039;50.894;6.888;2023-05-10T12:53:35;19.90;1.00
4050;DHT22;2039;50.894;6.888;2023-05-10T12:56:00;19.90;1.00
4050;DHT22;2039;50.894;6.888;2023-05-10T12:58:26;19.90;1.00
4050;DHT22;2039;50.894;6.888;2023-05-10T13:00:52;19.90;6.60
4050;DHT22;2039;50.894;6.888;2023-05-10T13:03:18;19.90;8.40
4050;DHT22;2039;50.894;6.888;2023-05-10T13:05:44;19.90;7.20
4050;DHT22;2039;50.894;6.888;2023-05-10T13:08:10;19.70;1.00
4050;DHT22;2039;50.894;6.888;2023-05-10T13:10:35;19.70;8.10
4050;DHT22;2039;50.894;6.888;2023-05-10T13:13:01;19.60;1.00
4050;DHT22;2039;50.894;6.888;2023-05-10T13:15:27;19.50;1.00
4050;DHT22;2039;50.894;6.888;2023-05-10T13:17:56;19.40;10.40
4050;DHT22;2039;50.894;6.888;2023-05-10T13:20:21;19.40;10.00
4050;DHT22;2039;50.894;6.888;2023-05-10T13:22:47;19.30;10.30
4050;DHT22;2039;50.894;6.888;2023-05-10T13:25:13;19.40;18.20
4050;DHT22;2039;50.894;6.888;2023-05-10T13:27:43;19.50;16.10
4050;DHT22;2039;50.894;6.888;2023-05-10T13:30:09;19.70;18.40
4050;DHT22;2039;50.894;6.888;2023-05-10T13:32:36;19.80;8.80
4050;DHT22;2039;50.894;6.888;2023-05-10T13:35:02;19.80;5.00
4050;DHT22;2039;50.894;6.888;2023-05-10T13:37:29;19.70;1.00
4050;DHT22;2039;50.894;6.888;2023-05-10T13:39:55;19.70;3.10
4050;DHT22;2039;50.894;6.888;2023-05-10T13:42:22;20.00;1.00
4050;DHT22;2039;50.894;6.888;2023-05-10T13:44:49;20.10;1.00
4050;DHT22;2039;50.894;6.888;2023-05-10T13:47:15;20.10;1.00
4050;DHT22;2039;50.894;6.888;2023-05-10T13:49:41;20.30;1.00
4050;DHT22;2039;50.894;6.888;2023-05-10T13:52:07;20.60;1.00
4050;DHT22;2039;50.894;6.888;2023-05-10T13:54:33;20.80;1.00
4050;DHT22;2039;50.894;6.888;2023-05-10T13:57:02;21.00;1.00
4050;DHT22;2039;50.894;6.888;2023-05-10T13:59:29;21.10;1.00
4050;DHT22;2039;50.894;6.888;2023-05-10T14:01:57;21.40;1.00
4050;DHT22;2039;50.894;6.888;2023-05-10T14:04:22;21.60;1.00
4050;DHT22;2039;50.894;6.888;2023-05-10T14:06:48;21.90;1.00
4050;DHT22;2039;50.894;6.888;2023-05-10T14:09:14;22.00;1.00
4050;DHT22;2039;50.894;6.888;2023-05-10T14:11:39;22.10;1.00
4050;DHT22;2039;50.894;6.888;2023-05-10T14:14:09;22.00;1.00
4050;DHT22;2039;50.894;6.888;2023-05-10T14:16:34;21.70;1.00
4050;DHT22;2039;50.894;6.888;2023-05-10T14:19:00;21.50;1.00
4050;DHT22;2039;50.894;6.888;2023-05-10T14:21:27;21.30;1.00
4050;DHT22;2039;50.894;6.888;2023-05-10T14:23:57;21.20;1.00
4050;DHT22;2039;50.894;6.888;2023-05-10T14:26:23;21.30;1.00
4050;DHT22;2039;50.894;6.888;2023-05-10T14:28:48;21.20;1.00
4050;DHT22;2039;50.894;6.888;2023-05-10T14:31:14;21.40;1.00
4050;DHT22;2039;50.894;6.888;2023-05-10T14:33:42;21.60;1.00
4050;DHT22;2039;50.894;6.888;2023-05-10T14:36:08;21.70;1.00
4050;DHT22;2039;50.894;6.888;2023-05-10T14:38:34;21.90;1.00
4050;DHT22;2039;50.894;6.888;2023-05-10T14:41:00;21.90;1.00
4050;DHT22;2039;50.894;6.888;2023-05-10T14:43:25;22.10;1.00
4050;DHT22;2039;50.894;6.888;2023-05-10T14:45:52;22.10;1.00
4050;DHT22;2039;50.894;6.888;2023-05-10T14:48:18;22.10;1.00
4050;DHT22;2039;50.894;6.888;2023-05-10T14:50:44;22.00;1.00
4050;DHT22;2039;50.894;6.888;2023-05-10T14:53:13;21.80;1.00
4050;DHT22;2039;50.894;6.888;2023-05-10T14:55:38;21.60;1.00
4050;DHT22;2039;50.894;6.888;2023-05-10T14:58:04;21.50;1.00
4050;DHT22;2039;50.894;6.888;2023-05-10T15:00:31;21.30;1.00
4050;DHT22;2039;50.894;6.888;2023-05-10T15:02:56;21.20;1.00
4050;DHT22;2039;50.894;6.888;2023-05-10T15:05:23;21.10;1.00
4050;DHT22;2039;50.894;6.888;2023-05-10T15:07:48;21.10;1.00
4050;DHT22;2039;50.894;6.888;2023-05-10T15:10:14;21.10;1.00
4050;DHT22;2039;50.894;6.888;2023-05-10T15:12:40;21.00;1.00
4050;DHT22;2039;50.894;6.888;2023-05-10T15:15:09;20.80;1.00
4050;DHT22;2039;50.894;6.888;2023-05-10T15:17:34;20.70;1.00
4050;DHT22;2039;50.894;6.888;2023-05-10T15:20:01;20.70;1.00
4050;DHT22;2039;50.894;6.888;2023-05-10T15:24:59;20.70;1.00
4050;DHT22;2039;50.894;6.888;2023-05-10T15:27:25;20.60;1.00
4050;DHT22;2039;50.894;6.888;2023-05-10T15:29:52;20.90;1.00
4050;DHT22;2039;50.894;6.888;2023-05-10T15:32:18;21.30;1.00
4050;DHT22;2039;50.894;6.888;2023-05-10T15:34:44;21.40;1.00
4050;DHT22;2039;50.894;6.888;2023-05-10T15:37:12;21.20;1.00
4050;DHT22;2039;50.894;6.888;2023-05-10T15:39:38;21.20;1.00
4050;DHT22;2039;50.894;6.888;2023-05-10T15:42:04;21.10;1.00
4050;DHT22;2039;50.894;6.888;2023-05-10T15:44:29;21.40;1.00
4050;DHT22;2039;50.894;6.888;2023-05-10T15:46:55;21.50;1.00
4050;DHT22;2039;50.894;6.888;2023-05-10T15:49:24;21.70;1.00
4050;DHT22;2039;50.894;6.888;2023-05-10T15:51:50;21.80;1.00
4050;DHT22;2039;50.894;6.888;2023-05-10T15:54:15;21.70;1.00
4050;DHT22;2039;50.894;6.888;2023-05-10T15:56:41;21.90;1.00
4050;DHT22;2039;50.894;6.888;2023-05-10T15:59:07;21.70;1.00
4050;DHT22;2039;50.894;6.888;2023-05-10T16:01:34;21.50;1.00
4050;DHT22;2039;50.894;6.888;2023-05-10T16:04:00;21.20;1.00
4050;DHT22;2039;50.894;6.888;2023-05-10T16:06:26;21.00;1.00
4050;DHT22;2039;50.894;6.888;2023-05-10T16:08:52;20.70;1.00
4050;DHT22;2039;50.894;6.888;2023-05-10T16:11:17;20.80;1.00
4050;DHT22;2039;50.894;6.888;2023-05-10T16:13:43;20.70;1.00
4050;DHT22;2039;50.894;6.888;2023-05-10T16:16:09;20.70;1.00
4050;DHT22;2039;50.894;6.888;2023-05-10T16:18:35;20.70;1.00
4050;DHT22;2039;50.894;6.888;2023-05-10T16:21:01;20.80;1.00
4050;DHT22;2039;50.894;6.888;2023-05-10T16:23:44;21.00;1.00
4050;DHT22;2039;50.894;6.888;2023-05-10T16:26:11;21.30;1.00
4050;DHT22;2039;50.894;6.888;2023-05-10T16:28:36;21.40;1.00
4050;DHT22;2039;50.894;6.888;2023-05-10T16:31:04;21.20;1.00
4050;DHT22;2039;50.894;6.888;2023-05-10T16:33:29;21.00;1.00
4050;DHT22;2039;50.894;6.888;2023-05-10T16:35:55;20.70;1.00
4050;DHT22;2039;50.894;6.888;2023-05-10T16:38:21;20.40;1.00
4050;DHT22;2039;50.894;6.888;2023-05-10T16:40:47;20.00;1.00
4050;DHT22;2039;50.894;6.888;2023-05-10T16:43:13;19.70;1.00
4050;DHT22;2039;50.894;6.888;2023-05-10T16:45:38;19.60;1.00
4050;DHT22;2039;50.894;6.888;2023-05-10T16:48:04;19.50;1.00
4050;DHT22;2039;50.894;6.888;2023-05-10T16:50:30;19.40;1.00
4050;DHT22;2039;50.894;6.888;2023-05-10T16:52:56;19.40;1.00
4050;DHT22;2039;50.894;6.888;2023-05-10T16:55:22;19.40;1.00
4050;DHT22;2039;50.894;6.888;2023-05-10T16:57:48;19.50;1.00
4050;DHT22;2039;50.894;6.888;2023-05-10T17:00:14;19.70;2.00
4050;DHT22;2039;50.894;6.888;2023-05-10T17:02:40;19.90;2.70
4050;DHT22;2039;50.894;6.888;2023-05-10T17:05:07;19.90;8.40
4050;DHT22;2039;50.894;6.888;2023-05-10T17:07:33;19.90;9.60
4050;DHT22;2039;50.894;6.888;2023-05-10T17:09:59;19.90;9.10
4050;DHT22;2039;50.894;6.888;2023-05-10T17:12:24;20.00;1.40
4050;DHT22;2039;50.894;6.888;2023-05-10T17:14:50;20.10;1.00
4050;DHT22;2039;50.894;6.888;2023-05-10T17:17:18;20.00;1.00
4050;DHT22;2039;50.894;6.888;2023-05-10T17:19:44;19.80;1.00
4050;DHT22;2039;50.894;6.888;2023-05-10T17:22:18;19.80;2.60
4050;DHT22;2039;50.894;6.888;2023-05-10T17:24:47;19.70;8.10
4050;DHT22;2039;50.894;6.888;2023-05-10T17:27:13;19.70;3.70
4050;DHT22;2039;50.894;6.888;2023-05-10T17:29:47;19.60;6.40
4050;DHT22;2039;50.894;6.888;2023-05-10T17:32:25;19.40;7.00
4050;DHT22;2039;50.894;6.888;2023-05-10T17:34:54;19.30;15.20
4050;DHT22;2039;50.894;6.888;2023-05-10T17:40:31;19.00;15.30
4050;DHT22;2039;50.894;6.888;2023-05-10T17:46:38;18.90;13.90
4050;DHT22;2039;50.894;6.888;2023-05-10T17:49:11;18.80;17.90
4050;DHT22;2039;50.894;6.888;2023-05-10T17:52:11;18.80;21.50
4050;DHT22;2039;50.894;6.888;2023-05-10T17:54:50;18.70;20.20
4050;DHT22;2039;50.894;6.888;2023-05-10T17:57:20;18.60;21.50
4050;DHT22;2039;50.894;6.888;2023-05-10T17:59:56;18.60;17.50
4050;DHT22;2039;50.894;6.888;2023-05-10T18:02:24;18.50;22.10
4050;DHT22;2039;50.894;6.888;2023-05-10T18:04:49;18.40;26.80
4050;DHT22;2039;50.894;6.888;2023-05-10T18:07:15;18.30;31.30
4050;DHT22;2039;50.894;6.888;2023-05-10T18:09:41;18.20;33.10
4050;DHT22;2039;50.894;6.888;2023-05-10T18:12:07;18.20;35.40
4050;DHT22;2039;50.894;6.888;2023-05-10T18:14:32;18.20;33.90
4050;DHT22;2039;50.894;6.888;2023-05-10T18:16:58;18.10;35.70
4050;DHT22;2039;50.894;6.888;2023-05-10T18:19:25;18.00;37.70
4050;DHT22;2039;50.894;6.888;2023-05-10T18:21:51;17.90;43.70
4050;DHT22;2039;50.894;6.888;2023-05-10T18:24:18;17.90;50.70
4050;DHT22;2039;50.894;6.888;2023-05-10T18:26:44;17.80;54.20
4050;DHT22;2039;50.894;6.888;2023-05-10T18:29:10;17.90;49.20
4050;DHT22;2039;50.894;6.888;2023-05-10T18:31:36;17.90;55.20
4050;DHT22;2039;50.894;6.888;2023-05-10T18:34:01;17.90;55.90
4050;DHT22;2039;50.894;6.888;2023-05-10T18:36:27;18.00;58.00
4050;DHT22;2039;50.894;6.888;2023-05-10T18:38:53;17.90;57.50
4050;DHT22;2039;50.894;6.888;2023-05-10T18:41:19;18.00;55.30
4050;DHT22;2039;50.894;6.888;2023-05-10T18:43:45;17.90;55.80
4050;DHT22;2039;50.894;6.888;2023-05-10T18:46:11;17.90;60.00
4050;DHT22;2039;50.894;6.888;2023-05-10T18:48:37;17.90;58.80
4050;DHT22;2039;50.894;6.888;2023-05-10T18:51:03;17.80;65.50
4050;DHT22;2039;50.894;6.888;2023-05-10T18:53:29;17.60;78.40
4050;DHT22;2039;50.894;6.888;2023-05-10T18:55:58;17.50;83.40
4050;DHT22;2039;50.894;6.888;2023-05-10T18:58:27;17.40;81.40
4050;DHT22;2039;50.894;6.888;2023-05-10T19:00:53;17.20;88.40
4050;DHT22;2039;50.894;6.888;2023-05-10T19:03:22;17.10;88.30
4050;DHT22;2039;50.894;6.888;2023-05-10T19:05:48;17.00;84.50
4050;DHT22;2039;50.894;6.888;2023-05-10T19:08:14;16.80;85.90
4050;DHT22;2039;50.894;6.888;2023-05-10T19:10:41;16.60;87.20
4050;DHT22;2039;50.894;6.888;2023-05-10T19:13:06;16.60;90.50
4050;DHT22;2039;50.894;6.888;2023-05-10T19:15:32;16.60;89.30
4050;DHT22;2039;50.894;6.888;2023-05-10T19:17:58;16.60;85.00
4050;DHT22;2039;50.894;6.888;2023-05-10T19:20:23;16.60;89.50
4050;DHT22;2039;50.894;6.888;2023-05-10T19:22:49;16.60;84.60
4050;DHT22;2039;50.894;6.888;2023-05-10T19:25:15;16.50;90.00
4050;DHT22;2039;50.894;6.888;2023-05-10T19:27:41;16.50;92.40
4050;DHT22;2039;50.894;6.888;2023-05-10T19:30:08;16.60;89.40
4050;DHT22;2039;50.894;6.888;2023-05-10T19:32:34;16.50;90.60
4050;DHT22;2039;50.894;6.888;2023-05-10T19:35:00;16.40;91.50
4050;DHT22;2039;50.894;6.888;2023-05-10T19:37:26;16.40;93.00
4050;DHT22;2039;50.894;6.888;2023-05-10T19:39:51;16.40;95.20
4050;DHT22;2039;50.894;6.888;2023-05-10T19:42:18;16.40;90.50
4050;DHT22;2039;50.894;6.888;2023-05-10T19:44:50;16.40;91.60
4050;DHT22;2039;50.894;6.888;2023-05-10T19:47:23;16.30;95.50
4050;DHT22;2039;50.894;6.888;2023-05-10T19:49:49;16.30;98.90
4050;DHT22;2039;50.894;6.888;2023-05-10T19:52:24;16.30;97.20
4050;DHT22;2039;50.894;6.888;2023-05-10T19:54:49;16.20;95.00
4050;DHT22;2039;50.894;6.888;2023-05-10T19:57:17;16.30;94.30
4050;DHT22;2039;50.894;6.888;2023-05-10T19:59:43;16.20;95.70
4050;DHT22;2039;50.894;6.888;2023-05-10T20:02:10;16.20;94.20
4050;DHT22;2039;50.894;6.888;2023-05-10T20:04:36;16.20;94.20
4050;DHT22;2039;50.894;6.888;2023-05-10T20:07:01;16.20;95.00
4050;DHT22;2039;50.894;6.888;2023-05-10T20:09:27;16.10;98.30
4050;DHT22;2039;50.894;6.888;2023-05-10T20:11:59;16.10;99.90
4050;DHT22;2039;50.894;6.888;2023-05-10T20:14:25;16.10;99.90
4050;DHT22;2039;50.894;6.888;2023-05-10T20:16:51;16.10;99.90
4050;DHT22;2039;50.894;6.888;2023-05-10T20:19:16;16.00;99.90
4050;DHT22;2039;50.894;6.888;2023-05-10T20:21:42;16.00;99.90
4050;DHT22;2039;50.894;6.888;2023-05-10T20:24:08;15.90;99.90
4050;DHT22;2039;50.894;6.888;2023-05-10T20:26:34;16.00;99.90
4050;DHT22;2039;50.894;6.888;2023-05-10T20:29:03;15.90;99.90
4050;DHT22;2039;50.894;6.888;2023-05-10T20:31:28;15.80;99.90
4050;DHT22;2039;50.894;6.888;2023-05-10T20:33:57;15.80;99.90
4050;DHT22;2039;50.894;6.888;2023-05-10T20:36:22;15.80;99.90
4050;DHT22;2039;50.894;6.888;2023-05-10T20:38:48;15.70;99.90
4050;DHT22;2039;50.894;6.888;2023-05-10T20:41:14;15.60;99.90
4050;DHT22;2039;50.894;6.888;2023-05-10T20:43:43;15.60;99.90
4050;DHT22;2039;50.894;6.888;2023-05-10T20:46:08;15.50;99.90
4050;DHT22;2039;50.894;6.888;2023-05-10T20:48:34;15.60;99.90
4050;DHT22;2039;50.894;6.888;2023-05-10T20:51:00;15.70;99.90
4050;DHT22;2039;50.894;6.888;2023-05-10T20:53:27;15.70;99.90
4050;DHT22;2039;50.894;6.888;2023-05-10T20:55:53;15.80;99.90
4050;DHT22;2039;50.894;6.888;2023-05-10T20:58:19;15.60;99.90
4050;DHT22;2039;50.894;6.888;2023-05-10T21:00:45;15.50;99.90
4050;DHT22;2039;50.894;6.888;2023-05-10T21:03:10;15.50;99.90
4050;DHT22;2039;50.894;6.888;2023-05-10T21:05:42;15.30;99.90
4050;DHT22;2039;50.894;6.888;2023-05-10T21:08:11;15.30;99.90
4050;DHT22;2039;50.894;6.888;2023-05-10T21:10:36;15.40;99.90
4050;DHT22;2039;50.894;6.888;2023-05-10T21:13:02;15.40;99.90
4050;DHT22;2039;50.894;6.888;2023-05-10T21:15:28;15.40;99.90
4050;DHT22;2039;50.894;6.888;2023-05-10T21:17:57;15.40;99.90
4050;DHT22;2039;50.894;6.888;2023-05-10T21:20:26;15.40;99.90
4050;DHT22;2039;50.894;6.888;2023-05-10T21:25:52;15.50;99.90
4050;DHT22;2039;50.894;6.888;2023-05-10T21:28:44;15.40;99.90
4050;DHT22;2039;50.894;6.888;2023-05-10T21:31:38;15.40;99.90
4050;DHT22;2039;50.894;6.888;2023-05-10T21:34:27;15.40;99.90
4050;DHT22;2039;50.894;6.888;2023-05-10T21:40:25;15.30;99.90
4050;DHT22;2039;50.894;6.888;2023-05-10T21:43:14;15.30;99.90
4050;DHT22;2039;50.894;6.888;2023-05-10T21:45:54;15.30;99.90
4050;DHT22;2039;50.894;6.888;2023-05-10T21:48:54;15.40;99.90
4050;DHT22;2039;50.894;6.888;2023-05-10T21:55:40;15.40;99.90
4050;DHT22;2039;50.894;6.888;2023-05-10T21:58:31;15.40;99.90
4050;DHT22;2039;50.894;6.888;2023-05-10T22:01:06;15.40;99.90
4050;DHT22;2039;50.894;6.888;2023-05-10T22:03:42;15.40;99.90
4050;DHT22;2039;50.894;6.888;2023-05-10T22:06:28;15.40;99.90
4050;DHT22;2039;50.894;6.888;2023-05-10T22:09:40;15.30;99.90
4050;DHT22;2039;50.894;6.888;2023-05-10T22:12:21;15.10;99.90
4050;DHT22;2039;50.894;6.888;2023-05-10T22:15:03;15.20;99.90
4050;DHT22;2039;50.894;6.888;2023-05-10T22:17:43;15.20;99.90
4050;DHT22;2039;50.894;6.888;2023-05-10T22:21:00;15.10;99.90
4050;DHT22;2039;50.894;6.888;2023-05-10T22:26:49;15.20;99.90
4050;DHT22;2039;50.894;6.888;2023-05-10T22:29:58;15.20;99.90
4050;DHT22;2039;50.894;6.888;2023-05-10T22:39:35;15.00;99.90
4050;DHT22;2039;50.894;6.888;2023-05-10T22:42:29;14.90;99.90
4050;DHT22;2039;50.894;6.888;2023-05-10T22:48:23;14.90;99.90
4050;DHT22;2039;50.894;6.888;2023-05-10T22:54:20;14.90;99.90